sensor_id;sensor_type;location;lat;lon;timestamp;pressure;altitude;pressure_sealevel;temperature;humidity
73085;BME280;62974;49.460;10.892;2022-08-19T00:01:56;97184.59;;;22.02;67.24
73085;BME280;62974;49.460;10.892;2022-08-19T00:04:29;97186.44;;;21.78;70.86
73085;BME280;62974;49.460;10.892;2022-08-19T00:06:58;97187.75;;;21.85;68.95
73085;BME280;62974;49.460;10.892;2022-08-19T00:09:26;97185.63;;;22.06;64.75
73085;BME280;62974;49.460;10.892;2022-08-19T00:11:55;97185.50;;;22.21;63.26
73085;BME280;62974;49.460;10.892;2022-08-19T00:14:25;97187.66;;;22.24;65.23
73085;BME280;62974;49.460;10.892;2022-08-19T00:16:53;97177.56;;;22.20;64.87
73085;BME280;62974;49.460;10.892;2022-08-19T00:19:22;97167.00;;;22.13;65.22
73085;BME280;62974;49.460;10.892;2022-08-19T00:21:51;97169.88;;;22.22;64.03
73085;BME280;62974;49.460;10.892;2022-08-19T00:24:19;97166.59;;;22.25;63.65
73085;BME280;62974;49.460;10.892;2022-08-19T00:26:47;97164.53;;;22.12;66.00
73085;BME280;62974;49.460;10.892;2022-08-19T00:29:16;97165.97;;;22.04;67.94
73085;BME280;62974;49.460;10.892;2022-08-19T00:31:45;97165.03;;;22.14;63.04
73085;BME280;62974;49.460;10.892;2022-08-19T00:34:16;97162.50;;;22.22;64.46
73085;BME280;62974;49.460;10.892;2022-08-19T00:36:43;97159.56;;;22.14;64.90
73085;BME280;62974;49.460;10.892;2022-08-19T00:39:14;97166.41;;;22.16;64.36
73085;BME280;62974;49.460;10.892;2022-08-19T00:41:43;97172.56;;;22.03;66.68
73085;BME280;62974;49.460;10.892;2022-08-19T00:44:16;97176.06;;;21.75;69.18
73085;BME280;62974;49.460;10.892;2022-08-19T00:46:47;97179.28;;;21.82;65.81
73085;BME280;62974;49.460;10.892;2022-08-19T00:49:27;97174.59;;;21.92;64.33
73085;BME280;62974;49.460;10.892;2022-08-19T00:52:00;97185.47;;;21.97;65.27
73085;BME280;62974;49.460;10.892;2022-08-19T00:54:30;97198.22;;;22.07;65.98
73085;BME280;62974;49.460;10.892;2022-08-19T00:56:59;97204.78;;;22.06;64.82
73085;BME280;62974;49.460;10.892;2022-08-19T00:59:29;97198.19;;;22.12;65.01
73085;BME280;62974;49.460;10.892;2022-08-19T01:02:17;97202.34;;;22.05;64.10
73085;BME280;62974;49.460;10.892;2022-08-19T01:04:46;97197.28;;;21.93;66.84
73085;BME280;62974;49.460;10.892;2022-08-19T01:07:14;97198.03;;;21.98;64.42
73085;BME280;62974;49.460;10.892;2022-08-19T01:09:46;97200.13;;;22.07;64.46
73085;BME280;62974;49.460;10.892;2022-08-19T01:12:14;97205.59;;;22.07;65.06
73085;BME280;62974;49.460;10.892;2022-08-19T01:14:44;97202.13;;;22.01;64.94
73085;BME280;62974;49.460;10.892;2022-08-19T01:17:12;97210.13;;;21.92;64.43
73085;BME280;62974;49.460;10.892;2022-08-19T01:19:41;97197.56;;;21.91;66.91
73085;BME280;62974;49.460;10.892;2022-08-19T01:22:12;97206.31;;;21.88;65.74
73085;BME280;62974;49.460;10.892;2022-08-19T01:24:53;97210.78;;;21.74;70.50
73085;BME280;62974;49.460;10.892;2022-08-19T01:27:21;97202.81;;;21.78;66.77
73085;BME280;62974;49.460;10.892;2022-08-19T01:29:50;97203.59;;;21.83;66.03
73085;BME280;62974;49.460;10.892;2022-08-19T01:32:18;97201.09;;;21.87;66.50
73085;BME280;62974;49.460;10.892;2022-08-19T01:34:59;97206.47;;;21.68;66.88
73085;BME280;62974;49.460;10.892;2022-08-19T01:37:28;97209.19;;;21.73;67.37
73085;BME280;62974;49.460;10.892;2022-08-19T01:39:58;97216.84;;;21.71;68.88
73085;BME280;62974;49.460;10.892;2022-08-19T01:42:26;97217.63;;;21.77;65.91
73085;BME280;62974;49.460;10.892;2022-08-19T01:44:56;97208.00;;;21.79;66.10
73085;BME280;62974;49.460;10.892;2022-08-19T01:47:23;97208.38;;;21.68;69.97
73085;BME280;62974;49.460;10.892;2022-08-19T01:49:51;97211.38;;;21.71;66.81
73085;BME280;62974;49.460;10.892;2022-08-19T01:52:19;97219.06;;;21.69;67.64
73085;BME280;62974;49.460;10.892;2022-08-19T01:54:46;97223.59;;;21.79;66.66
73085;BME280;62974;49.460;10.892;2022-08-19T01:57:15;97227.19;;;21.74;67.26
73085;BME280;62974;49.460;10.892;2022-08-19T01:59:44;97239.25;;;21.73;67.97
73085;BME280;62974;49.460;10.892;2022-08-19T02:02:12;97227.44;;;21.78;65.33
73085;BME280;62974;49.460;10.892;2022-08-19T02:04:40;97234.09;;;21.67;69.41
73085;BME280;62974;49.460;10.892;2022-08-19T02:07:07;97216.94;;;21.61;68.44
73085;BME280;62974;49.460;10.892;2022-08-19T02:09:36;97214.66;;;21.73;66.16
73085;BME280;62974;49.460;10.892;2022-08-19T02:12:03;97203.75;;;21.68;68.64
73085;BME280;62974;49.460;10.892;2022-08-19T02:14:33;97213.66;;;21.59;68.98
73085;BME280;62974;49.460;10.892;2022-08-19T02:17:01;97219.31;;;21.68;65.94
73085;BME280;62974;49.460;10.892;2022-08-19T02:19:29;97224.75;;;21.73;66.00
73085;BME280;62974;49.460;10.892;2022-08-19T02:21:59;97245.78;;;21.77;65.87
73085;BME280;62974;49.460;10.892;2022-08-19T02:24:27;97247.94;;;21.80;65.38
73085;BME280;62974;49.460;10.892;2022-08-19T02:26:55;97251.72;;;21.84;64.95
73085;BME280;62974;49.460;10.892;2022-08-19T02:29:23;97254.47;;;21.84;64.71
73085;BME280;62974;49.460;10.892;2022-08-19T02:31:53;97261.03;;;21.83;65.01
73085;BME280;62974;49.460;10.892;2022-08-19T02:34:20;97249.84;;;21.80;65.14
73085;BME280;62974;49.460;10.892;2022-08-19T02:36:48;97257.50;;;21.78;65.52
73085;BME280;62974;49.460;10.892;2022-08-19T02:39:18;97256.72;;;21.77;65.32
73085;BME280;62974;49.460;10.892;2022-08-19T02:41:44;97249.16;;;21.64;66.37
73085;BME280;62974;49.460;10.892;2022-08-19T02:44:12;97263.56;;;21.70;65.42
73085;BME280;62974;49.460;10.892;2022-08-19T02:46:58;97277.22;;;21.75;65.95
73085;BME280;62974;49.460;10.892;2022-08-19T02:49:25;97275.31;;;21.75;66.24
73085;BME280;62974;49.460;10.892;2022-08-19T02:51:53;97266.59;;;21.73;65.57
73085;BME280;62974;49.460;10.892;2022-08-19T02:54:21;97267.66;;;21.77;65.18
73085;BME280;62974;49.460;10.892;2022-08-19T02:56:48;97262.44;;;21.76;65.38
73085;BME280;62974;49.460;10.892;2022-08-19T02:59:16;97267.09;;;21.75;64.99
73085;BME280;62974;49.460;10.892;2022-08-19T03:01:48;97270.09;;;21.74;66.08
73085;BME280;62974;49.460;10.892;2022-08-19T03:04:18;97266.28;;;21.75;65.71
73085;BME280;62974;49.460;10.892;2022-08-19T03:06:46;97266.84;;;21.72;66.08
73085;BME280;62974;49.460;10.892;2022-08-19T03:09:15;97269.00;;;21.75;65.54
73085;BME280;62974;49.460;10.892;2022-08-19T03:11:43;97266.19;;;21.51;69.38
73085;BME280;62974;49.460;10.892;2022-08-19T03:14:13;97261.50;;;21.57;65.90
73085;BME280;62974;49.460;10.892;2022-08-19T03:16:44;97255.19;;;21.61;65.52
73085;BME280;62974;49.460;10.892;2022-08-19T03:19:37;97250.84;;;21.55;67.33
73085;BME280;62974;49.460;10.892;2022-08-19T03:22:04;97250.59;;;21.51;67.36
73085;BME280;62974;49.460;10.892;2022-08-19T03:24:32;97254.00;;;21.33;70.74
73085;BME280;62974;49.460;10.892;2022-08-19T03:27:00;97243.09;;;21.28;68.17
73085;BME280;62974;49.460;10.892;2022-08-19T03:29:29;97240.63;;;21.32;69.32
73085;BME280;62974;49.460;10.892;2022-08-19T03:31:58;97249.88;;;21.41;67.19
73085;BME280;62974;49.460;10.892;2022-08-19T03:34:28;97246.56;;;21.44;66.84
73085;BME280;62974;49.460;10.892;2022-08-19T03:36:59;97241.94;;;21.39;67.22
73085;BME280;62974;49.460;10.892;2022-08-19T03:39:30;97228.53;;;21.43;69.06
73085;BME280;62974;49.460;10.892;2022-08-19T03:41:57;97229.38;;;21.38;67.31
73085;BME280;62974;49.460;10.892;2022-08-19T03:44:46;97231.50;;;21.46;68.51
73085;BME280;62974;49.460;10.892;2022-08-19T03:47:13;97223.13;;;21.33;66.64
73085;BME280;62974;49.460;10.892;2022-08-19T03:49:43;97227.94;;;21.46;67.31
73085;BME280;62974;49.460;10.892;2022-08-19T03:52:13;97240.13;;;21.25;69.96
73085;BME280;62974;49.460;10.892;2022-08-19T03:54:41;97235.78;;;21.19;67.94
73085;BME280;62974;49.460;10.892;2022-08-19T03:57:09;97226.16;;;21.26;70.15
73085;BME280;62974;49.460;10.892;2022-08-19T03:59:38;97219.03;;;21.30;67.93
73085;BME280;62974;49.460;10.892;2022-08-19T04:02:08;97218.06;;;21.16;69.29
73085;BME280;62974;49.460;10.892;2022-08-19T04:04:37;97209.28;;;21.19;67.70
73085;BME280;62974;49.460;10.892;2022-08-19T04:07:05;97207.63;;;21.23;68.39
73085;BME280;62974;49.460;10.892;2022-08-19T04:09:34;97208.94;;;21.31;67.58
73085;BME280;62974;49.460;10.892;2022-08-19T04:12:04;97204.53;;;21.35;66.64
73085;BME280;62974;49.460;10.892;2022-08-19T04:14:33;97216.91;;;21.22;68.45
73085;BME280;62974;49.460;10.892;2022-08-19T04:17:02;97211.44;;;21.22;70.20
73085;BME280;62974;49.460;10.892;2022-08-19T04:19:31;97214.97;;;21.28;67.83
73085;BME280;62974;49.460;10.892;2022-08-19T04:21:59;97218.03;;;21.21;70.70
73085;BME280;62974;49.460;10.892;2022-08-19T04:24:27;97226.75;;;21.18;67.81
73085;BME280;62974;49.460;10.892;2022-08-19T04:26:56;97227.88;;;21.17;70.07
73085;BME280;62974;49.460;10.892;2022-08-19T04:29:24;97227.91;;;21.12;67.61
73085;BME280;62974;49.460;10.892;2022-08-19T04:31:54;97232.50;;;21.22;66.85
73085;BME280;62974;49.460;10.892;2022-08-19T04:34:23;97238.22;;;21.25;69.09
73085;BME280;62974;49.460;10.892;2022-08-19T04:36:53;97238.75;;;21.22;67.26
73085;BME280;62974;49.460;10.892;2022-08-19T04:39:23;97240.66;;;21.27;66.73
73085;BME280;62974;49.460;10.892;2022-08-19T04:42:13;97249.63;;;21.32;65.99
73085;BME280;62974;49.460;10.892;2022-08-19T04:44:59;97261.63;;;21.36;66.15
73085;BME280;62974;49.460;10.892;2022-08-19T04:47:27;97270.91;;;21.35;66.42
73085;BME280;62974;49.460;10.892;2022-08-19T04:50:15;97270.94;;;21.30;66.33
73085;BME280;62974;49.460;10.892;2022-08-19T04:52:42;97275.88;;;21.28;66.00
73085;BME280;62974;49.460;10.892;2022-08-19T04:55:11;97284.91;;;21.24;68.58
73085;BME280;62974;49.460;10.892;2022-08-19T04:57:40;97289.91;;;21.12;68.55
73085;BME280;62974;49.460;10.892;2022-08-19T05:00:09;97289.56;;;21.18;68.57
73085;BME280;62974;49.460;10.892;2022-08-19T05:02:37;97288.19;;;21.26;67.63
73085;BME280;62974;49.460;10.892;2022-08-19T05:05:05;97283.56;;;21.21;67.22
73085;BME280;62974;49.460;10.892;2022-08-19T05:07:33;97296.66;;;21.24;65.93
73085;BME280;62974;49.460;10.892;2022-08-19T05:10:01;97295.91;;;21.08;69.73
73085;BME280;62974;49.460;10.892;2022-08-19T05:12:29;97298.06;;;21.17;66.67
73085;BME280;62974;49.460;10.892;2022-08-19T05:14:59;97303.81;;;21.15;69.07
73085;BME280;62974;49.460;10.892;2022-08-19T05:17:27;97306.84;;;21.14;66.79
73085;BME280;62974;49.460;10.892;2022-08-19T05:20:03;97309.56;;;21.14;66.59
73085;BME280;62974;49.460;10.892;2022-08-19T05:23:04;97309.50;;;21.24;66.43
73085;BME280;62974;49.460;10.892;2022-08-19T05:25:46;97328.63;;;21.24;66.98
73085;BME280;62974;49.460;10.892;2022-08-19T05:28:13;97331.09;;;21.20;67.33
73085;BME280;62974;49.460;10.892;2022-08-19T05:30:42;97336.00;;;21.23;67.24
73085;BME280;62974;49.460;10.892;2022-08-19T05:33:13;97344.44;;;21.27;66.02
73085;BME280;62974;49.460;10.892;2022-08-19T05:35:40;97331.09;;;21.25;66.81
73085;BME280;62974;49.460;10.892;2022-08-19T05:38:08;97327.53;;;21.20;66.84
73085;BME280;62974;49.460;10.892;2022-08-19T05:40:38;97328.59;;;21.29;65.70
73085;BME280;62974;49.460;10.892;2022-08-19T05:43:07;97318.25;;;21.26;68.02
73085;BME280;62974;49.460;10.892;2022-08-19T05:45:38;97319.09;;;21.16;69.59
73085;BME280;62974;49.460;10.892;2022-08-19T05:48:08;97319.34;;;21.20;66.14
73085;BME280;62974;49.460;10.892;2022-08-19T05:50:38;97324.31;;;21.13;68.59
73085;BME280;62974;49.460;10.892;2022-08-19T05:53:05;97325.94;;;20.98;69.87
73085;BME280;62974;49.460;10.892;2022-08-19T05:55:35;97323.22;;;21.14;67.29
73085;BME280;62974;49.460;10.892;2022-08-19T05:58:04;97329.72;;;21.23;67.22
73085;BME280;62974;49.460;10.892;2022-08-19T06:00:34;97331.34;;;21.24;66.05
73085;BME280;62974;49.460;10.892;2022-08-19T06:03:02;97332.16;;;21.29;65.95
73085;BME280;62974;49.460;10.892;2022-08-19T06:05:40;97325.56;;;21.35;66.47
73085;BME280;62974;49.460;10.892;2022-08-19T06:08:21;97319.81;;;21.37;66.34
73085;BME280;62974;49.460;10.892;2022-08-19T06:11:12;97317.38;;;21.35;68.56
73085;BME280;62974;49.460;10.892;2022-08-19T06:13:40;97320.66;;;21.37;66.38
73085;BME280;62974;49.460;10.892;2022-08-19T06:16:07;97320.66;;;21.37;68.82
73085;BME280;62974;49.460;10.892;2022-08-19T06:18:35;97316.84;;;21.33;68.91
73085;BME280;62974;49.460;10.892;2022-08-19T06:21:04;97321.19;;;21.34;68.02
73085;BME280;62974;49.460;10.892;2022-08-19T06:23:32;97323.91;;;21.34;69.00
73085;BME280;62974;49.460;10.892;2022-08-19T06:26:01;97318.78;;;21.28;67.73
73085;BME280;62974;49.460;10.892;2022-08-19T06:28:28;97316.63;;;21.20;69.39
73085;BME280;62974;49.460;10.892;2022-08-19T06:30:56;97305.94;;;21.23;69.25
73085;BME280;62974;49.460;10.892;2022-08-19T06:33:24;97314.41;;;21.27;67.85
73085;BME280;62974;49.460;10.892;2022-08-19T06:35:51;97306.25;;;21.22;70.76
73085;BME280;62974;49.460;10.892;2022-08-19T06:38:20;97310.63;;;21.18;71.99
73085;BME280;62974;49.460;10.892;2022-08-19T06:40:48;97304.38;;;21.12;71.99
73085;BME280;62974;49.460;10.892;2022-08-19T06:43:16;97305.19;;;21.18;72.20
73085;BME280;62974;49.460;10.892;2022-08-19T06:45:44;97312.75;;;21.31;71.13
73085;BME280;62974;49.460;10.892;2022-08-19T06:48:13;97318.69;;;21.43;70.18
73085;BME280;62974;49.460;10.892;2022-08-19T06:50:43;97322.72;;;21.55;70.67
73085;BME280;62974;49.460;10.892;2022-08-19T06:53:11;97319.41;;;21.59;70.37
73085;BME280;62974;49.460;10.892;2022-08-19T06:55:41;97320.66;;;21.37;71.91
73085;BME280;62974;49.460;10.892;2022-08-19T06:58:09;97314.69;;;21.25;73.17
73085;BME280;62974;49.460;10.892;2022-08-19T07:00:37;97323.72;;;21.26;72.45
73085;BME280;62974;49.460;10.892;2022-08-19T07:03:05;97333.81;;;21.25;72.98
73085;BME280;62974;49.460;10.892;2022-08-19T07:05:38;97336.84;;;21.19;72.97
73085;BME280;62974;49.460;10.892;2022-08-19T07:08:10;97350.22;;;21.15;73.40
73085;BME280;62974;49.460;10.892;2022-08-19T07:10:43;97350.78;;;21.07;73.33
73085;BME280;62974;49.460;10.892;2022-08-19T07:13:11;97356.50;;;21.16;72.68
73085;BME280;62974;49.460;10.892;2022-08-19T07:15:39;97352.13;;;21.20;72.48
73085;BME280;62974;49.460;10.892;2022-08-19T07:18:08;97348.88;;;21.18;72.99
73085;BME280;62974;49.460;10.892;2022-08-19T07:20:37;97348.56;;;21.19;72.64
73085;BME280;62974;49.460;10.892;2022-08-19T07:23:07;97346.69;;;21.09;72.95
73085;BME280;62974;49.460;10.892;2022-08-19T07:25:42;97349.72;;;21.13;73.13
73085;BME280;62974;49.460;10.892;2022-08-19T07:28:18;97359.50;;;21.14;73.37
73085;BME280;62974;49.460;10.892;2022-08-19T07:30:50;97369.63;;;21.08;73.30
73085;BME280;62974;49.460;10.892;2022-08-19T07:33:18;97355.63;;;21.35;69.21
73085;BME280;62974;49.460;10.892;2022-08-19T07:35:46;97367.94;;;21.33;72.41
73085;BME280;62974;49.460;10.892;2022-08-19T07:38:14;97372.31;;;21.29;72.19
73085;BME280;62974;49.460;10.892;2022-08-19T07:40:44;97373.97;;;21.30;72.55
73085;BME280;62974;49.460;10.892;2022-08-19T07:43:13;97370.16;;;21.21;72.59
73085;BME280;62974;49.460;10.892;2022-08-19T07:45:43;97383.28;;;21.08;73.35
73085;BME280;62974;49.460;10.892;2022-08-19T07:48:11;97387.66;;;21.04;73.27
73085;BME280;62974;49.460;10.892;2022-08-19T07:50:39;97386.03;;;21.14;71.68
73085;BME280;62974;49.460;10.892;2022-08-19T07:53:07;97377.00;;;21.03;73.23
73085;BME280;62974;49.460;10.892;2022-08-19T07:55:34;97383.84;;;20.95;73.51
73085;BME280;62974;49.460;10.892;2022-08-19T07:58:11;97384.94;;;21.04;72.79
73085;BME280;62974;49.460;10.892;2022-08-19T08:00:39;97390.97;;;20.96;73.18
73085;BME280;62974;49.460;10.892;2022-08-19T08:03:07;97390.66;;;21.03;72.37
73085;BME280;62974;49.460;10.892;2022-08-19T08:05:35;97382.47;;;21.08;72.33
73085;BME280;62974;49.460;10.892;2022-08-19T08:08:21;97388.22;;;21.01;72.74
73085;BME280;62974;49.460;10.892;2022-08-19T08:11:11;97384.16;;;20.94;73.33
73085;BME280;62974;49.460;10.892;2022-08-19T08:13:42;97386.56;;;21.00;72.71
73085;BME280;62974;49.460;10.892;2022-08-19T08:16:10;97378.13;;;21.02;72.25
73085;BME280;62974;49.460;10.892;2022-08-19T08:18:40;97372.94;;;20.95;72.93
73085;BME280;62974;49.460;10.892;2022-08-19T08:21:16;97374.28;;;21.03;72.12
73085;BME280;62974;49.460;10.892;2022-08-19T08:23:43;97372.38;;;20.98;73.07
73085;BME280;62974;49.460;10.892;2022-08-19T08:26:11;97375.97;;;20.94;73.76
73085;BME280;62974;49.460;10.892;2022-08-19T08:28:42;97383.59;;;21.02;72.91
73085;BME280;62974;49.460;10.892;2022-08-19T08:31:14;97389.31;;;21.00;72.81
73085;BME280;62974;49.460;10.892;2022-08-19T08:33:42;97383.31;;;21.14;72.34
73085;BME280;62974;49.460;10.892;2022-08-19T08:36:10;97370.66;;;21.28;71.41
73085;BME280;62974;49.460;10.892;2022-08-19T08:38:41;97357.03;;;21.23;72.59
73085;BME280;62974;49.460;10.892;2022-08-19T08:41:17;97334.91;;;21.24;72.58
73085;BME280;62974;49.460;10.892;2022-08-19T08:43:50;97337.03;;;21.37;72.22
73085;BME280;62974;49.460;10.892;2022-08-19T08:46:22;97343.50;;;21.51;71.50
73085;BME280;62974;49.460;10.892;2022-08-19T08:49:02;97338.06;;;21.46;71.75
73085;BME280;62974;49.460;10.892;2022-08-19T08:51:34;97355.03;;;21.38;71.85
73085;BME280;62974;49.460;10.892;2022-08-19T08:54:04;97357.81;;;21.33;72.12
73085;BME280;62974;49.460;10.892;2022-08-19T08:56:37;97354.34;;;21.18;72.48
73085;BME280;62974;49.460;10.892;2022-08-19T08:59:10;97364.13;;;21.24;72.32
73085;BME280;62974;49.460;10.892;2022-08-19T09:01:40;97363.88;;;21.10;73.14
73085;BME280;62974;49.460;10.892;2022-08-19T09:04:07;97374.56;;;21.12;73.34
73085;BME280;62974;49.460;10.892;2022-08-19T09:06:39;97366.59;;;21.20;72.68
73085;BME280;62974;49.460;10.892;2022-08-19T09:09:14;97368.75;;;21.33;72.03
73085;BME280;62974;49.460;10.892;2022-08-19T09:11:52;97371.22;;;21.30;72.53
73085;BME280;62974;49.460;10.892;2022-08-19T09:14:34;97364.13;;;21.24;72.70
73085;BME280;62974;49.460;10.892;2022-08-19T09:17:22;97373.72;;;21.16;72.45
73085;BME280;62974;49.460;10.892;2022-08-19T09:19:59;97375.38;;;21.17;72.58
73085;BME280;62974;49.460;10.892;2022-08-19T09:22:30;97375.03;;;21.29;71.66
73085;BME280;62974;49.460;10.892;2022-08-19T09:24:59;97375.28;;;21.37;71.55
73085;BME280;62974;49.460;10.892;2022-08-19T09:27:28;97373.91;;;21.35;71.63
73085;BME280;62974;49.460;10.892;2022-08-19T09:30:13;97380.22;;;21.30;71.64
73085;BME280;62974;49.460;10.892;2022-08-19T09:32:42;97379.41;;;21.30;72.36
73085;BME280;62974;49.460;10.892;2022-08-19T09:35:11;97382.16;;;21.25;72.19
73085;BME280;62974;49.460;10.892;2022-08-19T09:37:40;97385.41;;;21.37;71.97
73085;BME280;62974;49.460;10.892;2022-08-19T09:40:09;97378.78;;;21.43;72.14
73085;BME280;62974;49.460;10.892;2022-08-19T09:42:37;97381.84;;;21.36;72.36
73085;BME280;62974;49.460;10.892;2022-08-19T09:45:18;97381.59;;;21.28;72.61
73085;BME280;62974;49.460;10.892;2022-08-19T09:47:49;97381.03;;;21.31;72.25
73085;BME280;62974;49.460;10.892;2022-08-19T09:50:21;97380.19;;;21.40;72.25
73085;BME280;62974;49.460;10.892;2022-08-19T09:52:49;97373.97;;;21.25;72.94
73085;BME280;62974;49.460;10.892;2022-08-19T09:55:22;97362.78;;;21.21;72.99
73085;BME280;62974;49.460;10.892;2022-08-19T09:58:00;97368.50;;;21.25;72.44
73085;BME280;62974;49.460;10.892;2022-08-19T10:00:29;97366.03;;;21.28;72.77
73085;BME280;62974;49.460;10.892;2022-08-19T10:02:57;97371.19;;;21.35;72.48
73085;BME280;62974;49.460;10.892;2022-08-19T10:05:26;97375.03;;;21.29;72.84
73085;BME280;62974;49.460;10.892;2022-08-19T10:08:14;97377.53;;;21.25;72.80
73085;BME280;62974;49.460;10.892;2022-08-19T10:10:43;97391.19;;;21.20;73.08
73085;BME280;62974;49.460;10.892;2022-08-19T10:13:17;97387.13;;;21.18;73.13
73085;BME280;62974;49.460;10.892;2022-08-19T10:15:49;97388.22;;;21.12;73.50
73085;BME280;62974;49.460;10.892;2022-08-19T10:18:19;97386.56;;;21.16;73.37
73085;BME280;62974;49.460;10.892;2022-08-19T10:20:49;97384.63;;;21.21;72.87
73085;BME280;62974;49.460;10.892;2022-08-19T10:23:20;97388.72;;;21.19;73.16
73085;BME280;62974;49.460;10.892;2022-08-19T10:25:49;97379.94;;;21.27;72.49
73085;BME280;62974;49.460;10.892;2022-08-19T10:28:19;97391.72;;;21.22;72.73
73085;BME280;62974;49.460;10.892;2022-08-19T10:30:50;97392.28;;;21.19;73.01
73085;BME280;62974;49.460;10.892;2022-08-19T10:33:18;97395.25;;;21.23;72.39
73085;BME280;62974;49.460;10.892;2022-08-19T10:36:08;97393.38;;;21.08;73.38
73085;BME280;62974;49.460;10.892;2022-08-19T10:38:37;97390.38;;;21.15;72.79
73085;BME280;62974;49.460;10.892;2022-08-19T10:41:20;97387.31;;;21.31;72.62
73085;BME280;62974;49.460;10.892;2022-08-19T10:43:50;97395.00;;;21.19;72.82
73085;BME280;62974;49.460;10.892;2022-08-19T10:46:21;97399.13;;;21.12;73.38
73085;BME280;62974;49.460;10.892;2022-08-19T10:48:50;97401.31;;;21.09;73.17
73085;BME280;62974;49.460;10.892;2022-08-19T10:51:19;97399.13;;;21.12;73.25
73085;BME280;62974;49.460;10.892;2022-08-19T10:54:14;97400.78;;;21.13;73.04
73085;BME280;62974;49.460;10.892;2022-08-19T10:56:41;97392.56;;;21.18;72.53
73085;BME280;62974;49.460;10.892;2022-08-19T10:59:19;97391.47;;;21.08;73.40
73085;BME280;62974;49.460;10.892;2022-08-19T11:01:54;97387.66;;;21.04;73.42
73085;BME280;62974;49.460;10.892;2022-08-19T11:04:26;97391.75;;;21.12;72.99
73085;BME280;62974;49.460;10.892;2022-08-19T11:06:55;97389.31;;;21.00;74.02
73085;BME280;62974;49.460;10.892;2022-08-19T11:09:25;97392.81;;;21.11;73.20
73085;BME280;62974;49.460;10.892;2022-08-19T11:12:00;97396.66;;;21.15;73.81
73085;BME280;62974;49.460;10.892;2022-08-19T11:14:30;97399.38;;;21.10;74.04
73085;BME280;62974;49.460;10.892;2022-08-19T11:17:01;97394.75;;;21.05;73.91
73085;BME280;62974;49.460;10.892;2022-08-19T11:19:29;97393.94;;;21.05;73.85
73085;BME280;62974;49.460;10.892;2022-08-19T11:21:58;97391.75;;;21.12;73.94
73085;BME280;62974;49.460;10.892;2022-08-19T11:24:30;97392.56;;;21.18;73.38
73085;BME280;62974;49.460;10.892;2022-08-19T11:27:04;97388.75;;;21.08;73.75
73085;BME280;62974;49.460;10.892;2022-08-19T11:29:33;97390.09;;;21.16;73.61
73085;BME280;62974;49.460;10.892;2022-08-19T11:32:05;97385.69;;;21.30;72.85
73085;BME280;62974;49.460;10.892;2022-08-19T11:34:33;97380.50;;;21.34;72.66
73085;BME280;62974;49.460;10.892;2022-08-19T11:37:02;97390.06;;;21.26;72.98
73085;BME280;62974;49.460;10.892;2022-08-19T11:39:33;97392.00;;;21.26;73.39
73085;BME280;62974;49.460;10.892;2022-08-19T11:42:04;97388.97;;;21.32;72.68
73085;BME280;62974;49.460;10.892;2022-08-19T11:44:54;97385.22;;;21.13;73.73
73085;BME280;62974;49.460;10.892;2022-08-19T11:47:23;97373.41;;;21.23;73.61
73085;BME280;62974;49.460;10.892;2022-08-19T11:49:50;97368.19;;;21.36;71.75
73085;BME280;62974;49.460;10.892;2022-08-19T11:52:19;97365.63;;;21.50;71.61
73085;BME280;62974;49.460;10.892;2022-08-19T11:54:47;97370.34;;;21.44;72.24
73085;BME280;62974;49.460;10.892;2022-08-19T11:57:15;97368.25;;;21.16;74.32
73085;BME280;62974;49.460;10.892;2022-08-19T11:59:48;97364.94;;;21.29;73.34
73085;BME280;62974;49.460;10.892;2022-08-19T12:02:16;97371.25;;;21.25;73.67
73085;BME280;62974;49.460;10.892;2022-08-19T12:04:47;97364.41;;;21.22;74.03
73085;BME280;62974;49.460;10.892;2022-08-19T12:07:14;97367.94;;;21.23;74.00
73085;BME280;62974;49.460;10.892;2022-08-19T12:09:42;97363.56;;;21.27;73.90
73085;BME280;62974;49.460;10.892;2022-08-19T12:12:11;97363.59;;;21.22;73.96
73085;BME280;62974;49.460;10.892;2022-08-19T12:14:39;97366.88;;;21.19;74.13
73085;BME280;62974;49.460;10.892;2022-08-19T12:17:06;97366.06;;;21.18;74.58
73085;BME280;62974;49.460;10.892;2022-08-19T12:19:35;97370.72;;;21.18;74.27
73085;BME280;62974;49.460;10.892;2022-08-19T12:22:05;97376.19;;;21.18;74.66
73085;BME280;62974;49.460;10.892;2022-08-19T12:24:33;97367.94;;;21.28;73.35
73085;BME280;62974;49.460;10.892;2022-08-19T12:27:01;97374.16;;;21.38;73.68
73085;BME280;62974;49.460;10.892;2022-08-19T12:29:29;97369.31;;;21.25;74.36
73085;BME280;62974;49.460;10.892;2022-08-19T12:31:58;97375.91;;;21.14;75.44
73085;BME280;62974;49.460;10.892;2022-08-19T12:34:29;97373.72;;;21.21;74.70
73085;BME280;62974;49.460;10.892;2022-08-19T12:36:58;97372.31;;;21.29;74.60
73085;BME280;62974;49.460;10.892;2022-08-19T12:39:29;97377.00;;;21.08;76.15
73085;BME280;62974;49.460;10.892;2022-08-19T12:41:57;97374.28;;;21.03;77.25
73085;BME280;62974;49.460;10.892;2022-08-19T12:44:26;97372.38;;;21.14;77.32
73085;BME280;62974;49.460;10.892;2022-08-19T12:46:55;97384.41;;;20.97;78.57
73085;BME280;62974;49.460;10.892;2022-08-19T12:49:22;97383.84;;;20.90;79.34
73085;BME280;62974;49.460;10.892;2022-08-19T12:52:11;97385.81;;;20.80;80.40
73085;BME280;62974;49.460;10.892;2022-08-19T12:54:43;97393.47;;;20.57;82.15
73085;BME280;62974;49.460;10.892;2022-08-19T12:57:10;97386.91;;;20.58;82.24
73085;BME280;62974;49.460;10.892;2022-08-19T12:59:39;97389.09;;;20.82;79.32
73085;BME280;62974;49.460;10.892;2022-08-19T13:02:07;97392.59;;;20.97;79.38
73085;BME280;62974;49.460;10.892;2022-08-19T13:04:35;97388.53;;;20.90;77.25
73085;BME280;62974;49.460;10.892;2022-08-19T13:07:07;97382.97;;;21.10;76.96
73085;BME280;62974;49.460;10.892;2022-08-19T13:09:35;97383.56;;;21.12;76.43